Overview Statistics Trail Chart Weather Telemetry Raw packets
 

This is the latest recevied weather packets stored in our database for station/object KO4DYK. If no packets are shown the sender has not sent any weather packets the latest 10 day(s).

<< 30 31 32 33 34 35 36 >>
Time Temp. Humidity Pressure Rain* Wind** Luminosity Snow
1788454053 37.22° C 52% 1018.1 hPa 0 mm - 138 W/m² -
1788453749 37.78° C 51% 1018.2 hPa 0 mm - 156 W/m² -
1788453448 36.67° C 53% 1018.2 hPa 0 mm - 572 W/m² -
1788453145 36.67° C 52% 1018.2 hPa 0 mm - 162 W/m² -
1788452840 36.67° C 55% 1018.3 hPa 0 mm - 643 W/m² -
1788452536 35.56° C 54% 1018.3 hPa 0 mm - 605 W/m² -
1788452232 36.11° C 53% 1018.1 hPa 0 mm - 639 W/m² -
1788451928 36.11° C 56% 1018.3 hPa 0 mm - 642 W/m² -
1788451624 36.11° C 55% 1018.4 hPa 0 mm - 590 W/m² -
1788451317 37.22° C 54% 1018.4 hPa 0 mm - 617 W/m² -
1788451016 37.78° C 54% 1018.5 hPa 0 mm - 655 W/m² -
1788450716 35.56° C 57% 1018.5 hPa 0 mm - 610 W/m² -
1788450412 35.56° C 56% 1018.5 hPa 0 mm - 477 W/m² -
1788450108 35.56° C 59% 1018.6 hPa 0 mm - 444 W/m² -
1788449803 35.56° C 57% 1018.6 hPa 0 mm - 573 W/m² -
1788449499 36.67° C 56% 1018.7 hPa 0 mm - 518 W/m² -
1788449195 36.67° C 57% 1018.5 hPa 0 mm - 434 W/m² -
1788448891 35.56° C 61% 1018.6 hPa 0 mm - 443 W/m² -
1788448590 34.44° C 63% 1018.5 hPa 0 mm - 511 W/m² -
1788448285 35° C 62% 1018.7 hPa 0 mm - 449 W/m² -
1788447980 33.33° C 66% 1018.8 hPa 0 mm - 416 W/m² -
1788447675 33.33° C 67% 1018.6 hPa 0 mm - 458 W/m² -
1788447375 33.89° C 65% 1018.6 hPa 0 mm - 451 W/m² -
1788447070 33.89° C 65% 1018.7 hPa 0 mm - 383 W/m² -
1788446768 33.33° C 66% 1018.6 hPa 0 mm - 414 W/m² -

* Rain latest hour (hover to see other rain measurements)
** Current wind speed in m/s (hover to see current wind gust speed)